createdAt,value
2017-09-27T00:01:14.527Z,14.83
2017-09-27T00:03:41.501Z,14.77
2017-09-27T00:06:07.699Z,14.75
2017-09-27T00:08:34.657Z,14.90
2017-09-27T00:11:01.248Z,14.91
2017-09-27T00:13:27.463Z,14.72
2017-09-27T00:15:53.667Z,14.78
2017-09-27T00:18:19.907Z,14.83
2017-09-27T00:20:46.128Z,15.07
2017-09-27T00:23:12.340Z,14.76
2017-09-27T00:25:38.617Z,14.68
2017-09-27T00:28:05.104Z,14.78
2017-09-27T00:30:31.315Z,14.58
2017-09-27T00:32:58.309Z,14.47
2017-09-27T00:35:24.535Z,14.32
2017-09-27T00:37:50.767Z,14.42
2017-09-27T00:40:17.031Z,14.45
2017-09-27T00:42:44.041Z,14.49
2017-09-27T00:45:10.271Z,14.35
2017-09-27T00:47:37.247Z,14.35
2017-09-27T00:50:03.463Z,14.48
2017-09-27T00:52:29.769Z,14.35
2017-09-27T00:54:56.051Z,14.42
2017-09-27T00:57:23.047Z,14.30
2017-09-27T00:59:49.300Z,14.44
2017-09-27T01:02:15.571Z,14.46
2017-09-27T01:04:41.775Z,14.65
2017-09-27T01:07:08.719Z,14.69
2017-09-27T01:09:36.743Z,14.69
2017-09-27T01:12:02.985Z,14.50
2017-09-27T01:14:29.207Z,14.59
2017-09-27T01:16:55.456Z,14.58
2017-09-27T01:19:21.702Z,14.55
2017-09-27T01:21:48.680Z,14.51
2017-09-27T01:24:14.991Z,14.57
2017-09-27T01:26:41.226Z,14.48
2017-09-27T01:29:07.512Z,14.46
2017-09-27T01:31:33.767Z,14.51
2017-09-27T01:34:00.755Z,14.58
2017-09-27T01:36:27.013Z,14.56
2017-09-27T01:38:53.529Z,14.46
2017-09-27T01:41:19.765Z,14.63
2017-09-27T01:43:46.012Z,14.42
2017-09-27T01:46:12.256Z,14.65
2017-09-27T01:48:39.255Z,14.67
2017-09-27T01:51:05.519Z,14.54
2017-09-27T01:53:31.759Z,14.60
2017-09-27T01:55:58.755Z,14.51
2017-09-27T01:58:25.020Z,14.49
2017-09-27T02:00:51.245Z,14.53
2017-09-27T02:03:17.486Z,14.33
2017-09-27T02:05:44.517Z,14.35
2017-09-27T02:08:10.724Z,14.43
2017-09-27T02:10:37.007Z,14.47
2017-09-27T02:13:03.947Z,14.46
2017-09-27T02:15:30.903Z,14.50
2017-09-27T02:17:57.135Z,14.57
2017-09-27T02:20:23.347Z,14.53
2017-09-27T02:22:50.287Z,14.57
2017-09-27T02:25:18.087Z,14.48
2017-09-27T02:27:44.299Z,14.45
2017-09-27T02:30:10.540Z,14.38
2017-09-27T02:32:36.988Z,14.36
2017-09-27T02:35:03.203Z,14.40
2017-09-27T02:37:29.415Z,14.45
2017-09-27T02:39:55.661Z,14.49
2017-09-27T02:42:21.901Z,14.54
2017-09-27T02:44:48.112Z,14.52
2017-09-27T02:47:14.352Z,14.49
2017-09-27T02:49:40.562Z,14.67
2017-09-27T02:52:06.783Z,14.51
2017-09-27T02:54:33.072Z,14.57
2017-09-27T02:56:59.296Z,14.52
2017-09-27T02:59:25.495Z,14.48
2017-09-27T03:01:51.937Z,14.53
2017-09-27T03:04:18.200Z,14.45
2017-09-27T03:06:45.192Z,14.51
2017-09-27T03:09:11.461Z,14.54
2017-09-27T03:11:37.680Z,14.46
2017-09-27T03:14:03.903Z,14.57
2017-09-27T03:16:30.163Z,14.53
2017-09-27T03:18:57.140Z,14.62
2017-09-27T03:21:23.387Z,14.51
2017-09-27T03:23:49.750Z,14.50
2017-09-27T03:26:15.968Z,14.71
2017-09-27T03:28:42.175Z,14.83
2017-09-27T03:31:08.412Z,14.92
2017-09-27T03:33:34.639Z,14.93
2017-09-27T03:36:00.855Z,14.76
2017-09-27T03:38:27.099Z,14.80
2017-09-27T03:40:53.303Z,14.76
2017-09-27T03:43:19.512Z,14.59
2017-09-27T03:45:45.769Z,14.80
2017-09-27T03:48:11.983Z,14.97
2017-09-27T03:50:38.200Z,14.97
2017-09-27T03:53:04.443Z,14.85
2017-09-27T03:55:30.664Z,14.94
2017-09-27T03:57:56.881Z,14.90
2017-09-27T04:00:23.565Z,14.87
2017-09-27T04:02:49.799Z,15.08
2017-09-27T04:05:16.019Z,14.99
2017-09-27T04:07:42.291Z,14.75
2017-09-27T04:10:09.253Z,14.80
2017-09-27T04:12:35.467Z,14.76
2017-09-27T04:15:02.484Z,14.70
2017-09-27T04:17:28.699Z,14.80
2017-09-27T04:19:54.914Z,14.69
2017-09-27T04:22:21.154Z,14.64
2017-09-27T04:24:47.370Z,14.68
2017-09-27T04:27:13.582Z,14.81
2017-09-27T04:29:39.826Z,14.82
2017-09-27T04:32:06.048Z,14.85
2017-09-27T04:34:32.258Z,14.94
2017-09-27T04:36:58.707Z,14.69
2017-09-27T04:39:24.917Z,14.80
2017-09-27T04:41:51.163Z,14.78
2017-09-27T04:44:17.799Z,14.96
2017-09-27T04:46:44.028Z,14.90
2017-09-27T04:49:10.241Z,14.90
2017-09-27T04:51:36.492Z,14.92
2017-09-27T04:54:02.699Z,14.94
2017-09-27T04:56:28.915Z,14.94
2017-09-27T04:58:55.156Z,14.95
2017-09-27T05:01:21.381Z,14.96
2017-09-27T05:03:47.622Z,15.09
2017-09-27T05:06:13.855Z,15.02
2017-09-27T05:08:40.073Z,14.95
2017-09-27T05:11:06.315Z,14.95
2017-09-27T05:13:32.528Z,14.96
2017-09-27T05:15:58.737Z,14.92
2017-09-27T05:18:25.179Z,15.00
2017-09-27T05:20:51.396Z,15.12
2017-09-27T05:23:17.612Z,15.18
2017-09-27T05:25:44.903Z,15.15
2017-09-27T05:28:11.116Z,15.11
2017-09-27T05:30:37.324Z,15.08
2017-09-27T05:33:04.304Z,14.97
2017-09-27T05:35:30.520Z,15.03
2017-09-27T05:37:56.746Z,15.12
2017-09-27T05:40:22.971Z,15.09
2017-09-27T05:42:49.188Z,14.97
2017-09-27T05:45:15.943Z,14.97
2017-09-27T05:47:42.182Z,15.13
2017-09-27T05:50:08.378Z,15.03
2017-09-27T05:52:35.375Z,14.96
2017-09-27T05:55:01.613Z,14.90
2017-09-27T05:57:27.846Z,15.02
2017-09-27T05:59:54.177Z,14.95
2017-09-27T06:02:20.383Z,15.00
2017-09-27T06:04:46.673Z,14.99
2017-09-27T06:07:12.901Z,15.05
2017-09-27T06:09:40.324Z,14.97
2017-09-27T06:12:06.672Z,15.04
2017-09-27T06:14:33.618Z,15.09
2017-09-27T06:17:00.574Z,15.06
2017-09-27T06:19:26.788Z,14.97
2017-09-27T06:21:53.732Z,14.95
2017-09-27T06:24:20.808Z,14.93
2017-09-27T06:26:47.003Z,15.04
2017-09-27T06:29:13.964Z,15.22
2017-09-27T06:31:40.928Z,15.09
2017-09-27T06:34:07.178Z,14.98
2017-09-27T06:36:34.123Z,14.97
2017-09-27T06:39:01.095Z,15.03
2017-09-27T06:41:27.297Z,15.09
2017-09-27T06:43:53.492Z,14.97
2017-09-27T06:46:19.769Z,15.08
2017-09-27T06:48:45.996Z,14.92
2017-09-27T06:51:12.195Z,14.93
2017-09-27T06:53:38.569Z,14.95
2017-09-27T06:56:04.789Z,14.95
2017-09-27T06:58:31.319Z,15.03
2017-09-27T07:00:57.734Z,14.92
2017-09-27T07:03:23.939Z,14.96
2017-09-27T07:05:51.393Z,15.04
2017-09-27T07:08:19.599Z,15.09
2017-09-27T07:10:45.888Z,15.10
2017-09-27T07:13:12.511Z,15.14
2017-09-27T07:15:41.646Z,15.32
2017-09-27T07:18:09.803Z,15.49
2017-09-27T07:20:36.821Z,15.58
2017-09-27T07:23:04.248Z,15.34
2017-09-27T07:25:30.459Z,15.23
2017-09-27T07:27:56.669Z,15.36
2017-09-27T07:30:22.910Z,15.26
2017-09-27T07:32:49.240Z,15.04
2017-09-27T07:35:15.482Z,15.14
2017-09-27T07:37:41.677Z,15.15
2017-09-27T07:40:08.116Z,15.05
2017-09-27T07:42:34.318Z,14.99
2017-09-27T07:45:01.306Z,15.15
2017-09-27T07:47:27.544Z,15.21
2017-09-27T07:49:53.997Z,15.34
2017-09-27T07:52:20.253Z,15.46
2017-09-27T07:54:47.241Z,15.46
2017-09-27T07:57:13.492Z,15.37
2017-09-27T07:59:39.776Z,15.47
2017-09-27T08:02:06.352Z,15.49
2017-09-27T08:04:33.027Z,15.47
2017-09-27T08:07:00.266Z,15.44
2017-09-27T08:09:27.588Z,15.63
2017-09-27T08:11:53.889Z,15.34
2017-09-27T08:14:20.333Z,15.22
2017-09-27T08:16:47.384Z,15.43
2017-09-27T08:19:13.612Z,15.35
2017-09-27T08:21:39.851Z,15.41
2017-09-27T08:24:06.421Z,15.58
2017-09-27T08:26:33.392Z,15.63
2017-09-27T08:28:59.626Z,15.65
2017-09-27T08:31:25.871Z,15.85
2017-09-27T08:33:52.086Z,15.97
2017-09-27T08:36:18.313Z,15.65
2017-09-27T08:38:44.669Z,15.68
2017-09-27T08:41:11.205Z,15.63
2017-09-27T08:43:37.637Z,15.79
2017-09-27T08:46:03.890Z,15.78
2017-09-27T08:48:30.459Z,15.74
2017-09-27T08:50:56.912Z,15.76
2017-09-27T08:53:23.147Z,15.89
2017-09-27T08:55:49.376Z,15.87
2017-09-27T08:58:15.629Z,15.97
2017-09-27T09:00:41.896Z,16.07
2017-09-27T09:03:08.900Z,16.05
2017-09-27T09:05:35.409Z,16.01
2017-09-27T09:08:02.838Z,16.02
2017-09-27T09:10:29.128Z,16.11
2017-09-27T09:12:55.341Z,16.21
2017-09-27T09:15:21.556Z,16.42
2017-09-27T09:17:47.797Z,16.28
2017-09-27T09:20:14.041Z,16.48
2017-09-27T09:22:40.260Z,16.58
2017-09-27T09:25:07.175Z,16.82
2017-09-27T09:27:33.412Z,16.67
2017-09-27T09:29:59.617Z,16.71
2017-09-27T09:32:25.863Z,16.82
2017-09-27T09:34:52.333Z,16.70
2017-09-27T09:37:18.812Z,16.90
2017-09-27T09:39:45.284Z,16.85
2017-09-27T09:42:11.679Z,16.85
2017-09-27T09:44:38.163Z,16.79
2017-09-27T09:47:05.385Z,16.86
2017-09-27T09:49:32.900Z,17.20
2017-09-27T09:52:00.271Z,17.18
2017-09-27T09:54:27.488Z,17.46
2017-09-27T09:56:53.705Z,17.58
2017-09-27T09:59:20.115Z,17.62
2017-09-27T10:01:46.323Z,17.59
2017-09-27T10:04:12.536Z,17.68
2017-09-27T10:06:39.192Z,17.75
2017-09-27T10:09:05.387Z,17.80
2017-09-27T10:11:32.332Z,17.89
2017-09-27T10:13:59.400Z,17.90
2017-09-27T10:16:26.823Z,17.92
2017-09-27T10:18:53.057Z,17.63
2017-09-27T10:21:20.103Z,17.49
2017-09-27T10:23:46.569Z,17.62
2017-09-27T10:26:12.855Z,17.66
2017-09-27T10:28:39.175Z,17.58
2017-09-27T10:31:05.390Z,17.59
2017-09-27T10:33:32.072Z,17.54
2017-09-27T10:35:59.202Z,17.72
2017-09-27T10:38:25.441Z,17.84
2017-09-27T10:40:51.937Z,18.16
2017-09-27T10:43:18.512Z,18.29
2017-09-27T10:45:45.457Z,18.34
2017-09-27T10:48:12.411Z,18.43
2017-09-27T10:50:39.449Z,18.48
2017-09-27T10:53:06.662Z,18.75
2017-09-27T10:55:32.885Z,18.66
2017-09-27T10:57:59.132Z,18.69
2017-09-27T11:00:26.358Z,18.84
2017-09-27T11:02:53.704Z,18.84
2017-09-27T11:05:20.772Z,18.71
2017-09-27T11:07:47.477Z,18.63
2017-09-27T11:10:13.765Z,18.74
2017-09-27T11:12:40.797Z,18.93
2017-09-27T11:15:07.223Z,18.84
2017-09-27T11:17:33.439Z,18.66
2017-09-27T11:19:59.670Z,18.85
2017-09-27T11:22:25.876Z,18.97
2017-09-27T11:24:52.335Z,19.18
2017-09-27T11:27:18.546Z,19.21
2017-09-27T11:29:44.736Z,19.45
2017-09-27T11:32:11.726Z,19.17
2017-09-27T11:34:37.938Z,18.98
2017-09-27T11:37:04.139Z,19.11
2017-09-27T11:39:31.392Z,19.06
2017-09-27T11:41:58.380Z,19.14
2017-09-27T11:44:24.835Z,19.27
2017-09-27T11:46:51.067Z,19.44
2017-09-27T11:49:17.277Z,19.50
2017-09-27T11:51:43.480Z,19.60
2017-09-27T11:54:10.032Z,19.85
2017-09-27T11:56:36.247Z,19.57
2017-09-27T11:59:02.496Z,19.53
2017-09-27T12:01:28.813Z,19.54
2017-09-27T12:03:55.023Z,19.65
2017-09-27T12:06:21.250Z,19.99
2017-09-27T12:08:47.492Z,20.33
2017-09-27T12:11:13.712Z,20.56
2017-09-27T12:13:39.916Z,20.86
2017-09-27T12:16:06.936Z,21.02
2017-09-27T12:18:33.146Z,20.78
2017-09-27T12:20:59.359Z,20.71
2017-09-27T12:23:25.676Z,20.53
2017-09-27T12:25:51.901Z,20.57
2017-09-27T12:28:18.116Z,20.67
2017-09-27T12:30:44.358Z,20.55
2017-09-27T12:33:10.556Z,20.79
2017-09-27T12:35:37.508Z,20.52
2017-09-27T12:38:04.588Z,20.45
2017-09-27T12:40:30.816Z,20.26
2017-09-27T12:42:57.040Z,20.06
2017-09-27T12:45:23.276Z,20.09
2017-09-27T12:47:49.499Z,20.09
2017-09-27T12:50:15.725Z,20.02
2017-09-27T12:52:41.948Z,19.85
2017-09-27T12:55:08.174Z,19.76
2017-09-27T12:57:34.417Z,19.65
2017-09-27T13:00:00.632Z,19.58
2017-09-27T13:02:26.839Z,19.41
2017-09-27T13:04:53.060Z,19.42
2017-09-27T13:07:20.000Z,19.37
2017-09-27T13:09:46.956Z,19.14
2017-09-27T13:12:13.200Z,19.13
2017-09-27T13:14:39.400Z,18.80
2017-09-27T13:17:06.347Z,18.71
2017-09-27T13:19:33.328Z,18.54
2017-09-27T13:21:59.537Z,18.64
2017-09-27T13:24:25.736Z,18.54
2017-09-27T13:26:52.835Z,18.67
2017-09-27T13:29:19.045Z,18.68
2017-09-27T13:31:45.302Z,18.71
2017-09-27T13:34:11.532Z,18.73
2017-09-27T13:36:37.756Z,18.70
2017-09-27T13:39:04.024Z,18.60
2017-09-27T13:41:31.000Z,18.70
2017-09-27T13:43:57.240Z,18.72
2017-09-27T13:46:23.494Z,18.86
2017-09-27T13:48:49.686Z,18.93
2017-09-27T13:51:15.935Z,18.84
2017-09-27T13:53:42.152Z,18.80
2017-09-27T13:56:08.388Z,18.79
2017-09-27T13:58:34.616Z,18.73
2017-09-27T14:01:00.868Z,18.67
2017-09-27T14:03:27.883Z,18.85
2017-09-27T14:05:54.132Z,18.68
2017-09-27T14:08:20.644Z,18.57
2017-09-27T14:10:47.649Z,18.47
2017-09-27T14:13:15.029Z,18.62
2017-09-27T14:15:41.277Z,18.53
2017-09-27T14:18:07.504Z,18.70
2017-09-27T14:20:33.945Z,18.66
2017-09-27T14:23:00.169Z,18.70
2017-09-27T14:25:26.461Z,18.81
2017-09-27T14:27:53.871Z,18.72
2017-09-27T14:30:20.122Z,18.72
2017-09-27T14:32:46.358Z,18.63
2017-09-27T14:35:13.417Z,18.52
2017-09-27T14:37:40.409Z,18.74
2017-09-27T14:40:06.646Z,18.61
2017-09-27T14:42:33.301Z,18.57
2017-09-27T14:44:59.538Z,18.69
2017-09-27T14:47:26.544Z,18.79
2017-09-27T14:49:53.112Z,18.81
2017-09-27T14:52:19.344Z,18.76
2017-09-27T14:54:45.608Z,18.79
2017-09-27T14:57:12.622Z,18.83
2017-09-27T14:59:38.868Z,18.86
2017-09-27T15:02:05.813Z,18.93
2017-09-27T15:04:32.991Z,18.96
2017-09-27T15:06:59.197Z,19.13
2017-09-27T15:09:26.166Z,19.14
2017-09-27T15:11:52.364Z,18.99
2017-09-27T15:14:19.342Z,18.99
2017-09-27T15:16:45.673Z,19.01
2017-09-27T15:19:11.903Z,19.01
2017-09-27T15:21:38.144Z,18.96
2017-09-27T15:24:04.593Z,18.96
2017-09-27T15:26:30.824Z,19.11
2017-09-27T15:28:57.042Z,19.17
2017-09-27T15:31:23.273Z,19.10
2017-09-27T15:33:49.870Z,19.01
2017-09-27T15:36:16.098Z,19.13
2017-09-27T15:38:42.669Z,19.22
2017-09-27T15:41:08.880Z,19.35
2017-09-27T15:43:35.092Z,19.39
2017-09-27T15:46:01.303Z,19.51
2017-09-27T15:48:28.263Z,19.50
2017-09-27T15:50:54.855Z,19.53
2017-09-27T15:53:21.311Z,19.56
2017-09-27T15:55:47.543Z,19.59
2017-09-27T15:58:14.745Z,19.48
2017-09-27T16:00:40.948Z,19.58
2017-09-27T16:03:07.426Z,19.53
2017-09-27T16:05:33.774Z,19.51
2017-09-27T16:08:00.043Z,19.52
2017-09-27T16:10:26.371Z,19.40
2017-09-27T16:12:52.615Z,19.46
2017-09-27T16:15:18.828Z,19.43
2017-09-27T16:17:45.043Z,19.35
2017-09-27T16:20:11.428Z,19.31
2017-09-27T16:22:38.461Z,19.21
2017-09-27T16:25:04.668Z,19.30
2017-09-27T16:27:31.328Z,19.24
2017-09-27T16:29:57.539Z,19.28
2017-09-27T16:32:24.088Z,19.22
2017-09-27T16:34:50.643Z,19.19
2017-09-27T16:37:16.877Z,18.98
2017-09-27T16:39:43.583Z,19.00
2017-09-27T16:42:10.107Z,19.08
2017-09-27T16:44:36.326Z,19.00
2017-09-27T16:47:02.951Z,19.04
2017-09-27T16:49:29.185Z,19.11
2017-09-27T16:51:55.421Z,19.07
2017-09-27T16:54:22.096Z,19.12
2017-09-27T16:56:48.299Z,19.16
2017-09-27T16:59:14.514Z,19.15
2017-09-27T17:01:40.963Z,19.09
2017-09-27T17:04:07.618Z,19.12
2017-09-27T17:06:33.833Z,19.16
2017-09-27T17:09:00.080Z,19.11
2017-09-27T17:11:26.575Z,19.14
2017-09-27T17:13:53.148Z,19.09
2017-09-27T17:16:19.371Z,19.18
2017-09-27T17:18:45.567Z,19.04
2017-09-27T17:21:11.820Z,18.95
2017-09-27T17:23:38.126Z,18.99
2017-09-27T17:26:04.593Z,18.83
2017-09-27T17:28:30.833Z,18.85
2017-09-27T17:30:57.079Z,18.84
2017-09-27T17:33:24.040Z,18.77
2017-09-27T17:35:50.411Z,18.76
2017-09-27T17:38:17.667Z,18.74
2017-09-27T17:40:43.884Z,18.73
2017-09-27T17:43:10.137Z,18.73
2017-09-27T17:45:36.372Z,18.73
2017-09-27T17:48:02.597Z,18.60
2017-09-27T17:50:29.947Z,18.63
2017-09-27T17:52:56.168Z,18.60
2017-09-27T17:55:22.701Z,18.56
2017-09-27T17:57:48.993Z,18.50
2017-09-27T18:00:15.245Z,18.59
2017-09-27T18:02:41.894Z,18.59
2017-09-27T18:05:10.997Z,18.47
2017-09-27T18:07:55.532Z,18.52
2017-09-27T18:10:29.123Z,18.47
2017-09-27T18:13:01.763Z,18.38
2017-09-27T18:15:34.255Z,18.34
2017-09-27T18:18:04.251Z,18.31
2017-09-27T18:20:31.244Z,18.39
2017-09-27T18:22:57.481Z,18.39
2017-09-27T18:25:24.031Z,18.36
2017-09-27T18:27:50.404Z,18.34
2017-09-27T18:30:16.691Z,18.25
2017-09-27T18:32:43.134Z,18.19
2017-09-27T18:35:09.360Z,18.17
2017-09-27T18:37:35.602Z,18.28
2017-09-27T18:40:03.086Z,18.25
2017-09-27T18:42:30.065Z,18.11
2017-09-27T18:44:57.110Z,18.22
2017-09-27T18:47:23.912Z,18.03
2017-09-27T18:49:50.867Z,17.99
2017-09-27T18:52:18.369Z,18.16
2017-09-27T18:54:47.029Z,18.20
2017-09-27T18:57:15.154Z,18.06
2017-09-27T18:59:42.815Z,18.01
2017-09-27T19:02:10.135Z,17.96
2017-09-27T19:04:38.539Z,17.91
2017-09-27T19:07:07.472Z,17.84
2017-09-27T19:09:35.714Z,17.79
2017-09-27T19:12:03.210Z,18.00
2017-09-27T19:14:31.056Z,17.94
2017-09-27T19:16:58.508Z,18.06
2017-09-27T19:19:25.951Z,17.89
2017-09-27T19:21:53.867Z,17.84
2017-09-27T19:24:22.104Z,17.77
2017-09-27T19:26:49.591Z,17.74
2017-09-27T19:29:18.301Z,17.73
2017-09-27T19:31:45.405Z,17.74
2017-09-27T19:34:12.832Z,17.61
2017-09-27T19:36:41.457Z,17.70
2017-09-27T19:39:09.612Z,17.73
2017-09-27T19:41:37.039Z,17.71
2017-09-27T19:44:04.549Z,17.71
2017-09-27T19:46:31.886Z,17.64
2017-09-27T19:48:59.334Z,17.74
2017-09-27T19:51:26.910Z,17.68
2017-09-27T19:53:55.345Z,17.64
2017-09-27T19:56:23.706Z,17.56
2017-09-27T19:58:51.150Z,17.52
2017-09-27T20:01:20.705Z,17.41
2017-09-27T20:03:48.956Z,17.47
2017-09-27T20:06:16.779Z,17.46
2017-09-27T20:08:44.183Z,17.53
2017-09-27T20:11:11.398Z,17.52
2017-09-27T20:13:38.817Z,17.41
2017-09-27T20:16:06.355Z,17.36
2017-09-27T20:18:34.689Z,17.29
2017-09-27T20:21:03.141Z,17.14
2017-09-27T20:23:30.581Z,17.08
2017-09-27T20:25:58.187Z,17.11
2017-09-27T20:28:26.478Z,17.10
2017-09-27T20:30:55.368Z,17.09
2017-09-27T20:33:23.314Z,16.97
2017-09-27T20:35:51.036Z,16.93
2017-09-27T20:38:18.546Z,16.95
2017-09-27T20:40:50.516Z,17.11
2017-09-27T20:43:20.609Z,17.12
2017-09-27T20:45:49.403Z,17.06
2017-09-27T20:48:17.413Z,16.97
2017-09-27T20:50:45.517Z,16.89
2017-09-27T20:53:14.428Z,16.93
2017-09-27T20:55:42.808Z,16.93
2017-09-27T20:58:10.192Z,16.90
2017-09-27T21:00:39.413Z,16.86
2017-09-27T21:03:11.133Z,16.82
2017-09-27T21:05:38.913Z,16.81
2017-09-27T21:08:06.793Z,16.72
2017-09-27T21:10:34.374Z,16.69
2017-09-27T21:13:00.725Z,16.70
2017-09-27T21:15:27.773Z,16.61
2017-09-27T21:17:55.143Z,16.62
2017-09-27T21:20:24.908Z,16.67
2017-09-27T21:22:52.796Z,16.63
2017-09-27T21:25:24.830Z,16.65
2017-09-27T21:27:53.519Z,16.76
2017-09-27T21:30:21.309Z,16.66
2017-09-27T21:32:49.146Z,16.67
2017-09-27T21:35:18.262Z,16.67
2017-09-27T21:37:45.756Z,16.59
2017-09-27T21:40:14.433Z,16.57
2017-09-27T21:42:42.909Z,16.59
2017-09-27T21:45:13.548Z,16.44
2017-09-27T21:47:41.076Z,16.42
2017-09-27T21:50:09.440Z,16.67
2017-09-27T21:52:37.101Z,16.56
2017-09-27T21:55:06.565Z,16.66
2017-09-27T21:57:34.782Z,16.75
2017-09-27T22:00:02.335Z,16.65
2017-09-27T22:02:30.675Z,16.74
2017-09-27T22:04:59.956Z,16.69
2017-09-27T22:07:29.725Z,16.74
2017-09-27T22:09:57.231Z,16.88
2017-09-27T22:12:24.994Z,16.87
2017-09-27T22:14:52.654Z,16.73
2017-09-27T22:17:23.153Z,16.71
2017-09-27T22:19:51.861Z,16.77
2017-09-27T22:22:19.648Z,16.81
2017-09-27T22:24:48.097Z,16.71
2017-09-27T22:27:16.668Z,16.71
2017-09-27T22:29:44.197Z,16.62
2017-09-27T22:32:12.538Z,16.56
2017-09-27T22:34:42.204Z,16.61
2017-09-27T22:37:09.746Z,16.55
2017-09-27T22:39:37.257Z,16.37
2017-09-27T22:42:04.619Z,16.34
2017-09-27T22:44:32.942Z,16.23
2017-09-27T22:47:03.199Z,16.23
2017-09-27T22:49:34.849Z,16.25
2017-09-27T22:52:02.298Z,16.25
2017-09-27T22:54:30.516Z,16.23
2017-09-27T22:56:58.127Z,16.23
2017-09-27T22:59:26.461Z,16.05
2017-09-27T23:01:55.907Z,16.10
2017-09-27T23:04:23.606Z,16.05
2017-09-27T23:06:51.256Z,16.02
2017-09-27T23:09:19.568Z,16.09
2017-09-27T23:11:53.491Z,15.94
2017-09-27T23:14:22.007Z,16.11
2017-09-27T23:16:49.486Z,16.05
2017-09-27T23:19:17.357Z,15.83
2017-09-27T23:21:46.348Z,15.77
2017-09-27T23:24:13.013Z,15.78
2017-09-27T23:26:41.704Z,15.80
2017-09-27T23:29:10.583Z,15.79
2017-09-27T23:31:44.504Z,15.75
2017-09-27T23:34:12.671Z,15.69
2017-09-27T23:36:48.982Z,15.75
2017-09-27T23:39:23.347Z,15.83
2017-09-27T23:41:52.506Z,15.82
2017-09-27T23:44:19.992Z,15.70
2017-09-27T23:46:48.225Z,15.64
2017-09-27T23:49:15.808Z,15.78
2017-09-27T23:51:43.400Z,15.64
2017-09-27T23:56:50.559Z,15.49
2017-09-27T23:59:18.745Z,15.45
